Time;durP1;ratioP1;P1;durP2;ratioP2;P2;SDS_P1;SDS_P2;PMS_P1;PMS_P2;Temp;Humidity;BMP_temperature;BMP_pressure;BME280_temperature;BME280_humidity;BME280_pressure;Samples;Min_cycle;Max_cycle;Signal;HPM_P1;HPM_P2
2021/12/02 00:01:32;;;;;;;2.88;1.67;;;6.20;55.60;;;;;;5108151;27;36260;-76
2021/12/02 00:03:58;;;;;;;3.95;1.35;;;6.20;55.70;;;;;;5108743;27;34064;-76
2021/12/02 00:06:24;;;;;;;2.97;1.63;;;6.20;55.70;;;;;;5106799;27;34216;-76
2021/12/02 00:08:51;;;;;;;2.38;1.67;;;6.30;55.90;;;;;;5108311;27;34206;-76
2021/12/02 00:11:19;;;;;;;4.25;1.92;;;6.30;55.80;;;;;;5108033;27;36482;-76
2021/12/02 00:16:39;;;;;;;1.23;1.13;;;6.40;55.80;;;;;;5110708;27;34259;-76
2021/12/02 00:21:52;;;;;;;3.00;1.27;;;6.50;55.80;;;;;;5124869;27;34276;-77
2021/12/02 00:24:20;;;;;;;2.33;1.60;;;6.60;55.70;;;;;;5120567;27;34154;-77
2021/12/02 00:26:49;;;;;;;1.95;1.50;;;6.60;55.60;;;;;;5090821;27;34381;-77
2021/12/02 00:29:19;;;;;;;2.50;1.45;;;6.60;55.50;;;;;;5108852;27;34137;-77
2021/12/02 00:31:46;;;;;;;3.05;1.50;;;6.70;55.60;;;;;;5107260;27;35487;-77
2021/12/02 00:34:13;;;;;;;1.73;1.30;;;6.70;55.60;;;;;;5107421;27;34402;-77
2021/12/02 00:36:40;;;;;;;3.55;1.38;;;6.70;55.50;;;;;;5107226;27;34492;-76
2021/12/02 00:39:10;;;;;;;2.33;1.30;;;6.70;55.50;;;;;;5125414;27;34333;-77
2021/12/02 00:41:37;;;;;;;2.42;1.33;;;6.80;55.50;;;;;;5108421;27;34233;-77
2021/12/02 00:44:04;;;;;;;2.78;1.58;;;6.80;55.40;;;;;;5107667;27;34287;-77
2021/12/02 00:46:32;;;;;;;2.20;1.30;;;6.80;55.40;;;;;;5106934;27;34229;-77
2021/12/02 00:49:03;;;;;;;2.20;1.60;;;6.80;55.30;;;;;;5107924;27;34549;-76
2021/12/02 00:51:31;;;;;;;3.92;1.48;;;6.80;55.30;;;;;;5126141;27;34487;-77
2021/12/02 00:54:03;;;;;;;1.13;0.95;;;6.90;55.40;;;;;;5090170;27;34104;-76
2021/12/02 00:56:30;;;;;;;1.50;1.40;;;6.90;55.30;;;;;;5107144;27;34547;-76
2021/12/02 00:58:56;;;;;;;2.55;1.50;;;6.80;55.20;;;;;;5107552;27;34407;-76
2021/12/02 01:01:25;;;;;;;2.45;1.30;;;6.80;55.20;;;;;;5107210;27;35774;-77
2021/12/02 01:03:56;;;;;;;2.45;1.15;;;6.90;55.20;;;;;;5090950;27;34284;-77
2021/12/02 01:06:22;;;;;;;3.30;1.30;;;6.90;55.10;;;;;;5107502;27;34315;-76
2021/12/02 01:08:48;;;;;;;1.58;1.13;;;6.90;55.10;;;;;;5126442;27;34208;-77
2021/12/02 01:11:17;;;;;;;2.20;0.95;;;6.90;55.00;;;;;;5107445;27;35946;-77
2021/12/02 01:13:43;;;;;;;3.95;1.08;;;6.90;55.00;;;;;;5107272;27;34460;-76
2021/12/02 01:16:10;;;;;;;2.33;1.00;;;6.90;55.10;;;;;;5107353;27;34242;-77
2021/12/02 01:18:36;;;;;;;1.25;0.77;;;6.90;55.10;;;;;;5107233;27;34359;-77
2021/12/02 01:21:04;;;;;;;0.85;0.80;;;6.90;55.10;;;;;;5124852;27;34532;-77
2021/12/02 01:23:32;;;;;;;1.40;1.13;;;6.90;55.00;;;;;;5107635;27;34299;-77
2021/12/02 01:26:03;;;;;;;0.95;0.80;;;6.90;55.20;;;;;;5090816;27;34170;-77
2021/12/02 01:28:32;;;;;;;0.60;0.60;;;6.90;55.20;;;;;;5107561;27;34169;-76
2021/12/02 01:30:59;;;;;;;0.82;0.70;;;6.90;55.00;;;;;;5125659;27;35450;-76
2021/12/02 01:33:27;;;;;;;1.50;0.57;;;6.80;55.00;;;;;;5106414;27;34232;-76
2021/12/02 01:35:58;;;;;;;2.47;0.70;;;6.90;55.00;;;;;;5106734;27;34122;-76
2021/12/02 01:38:25;;;;;;;0.73;0.60;;;6.90;54.80;;;;;;5090323;27;34482;-76
2021/12/02 01:40:53;;;;;;;1.27;0.63;;;6.80;55.00;;;;;;5090737;27;36455;-77
2021/12/02 01:43:21;;;;;;;0.63;0.63;;;6.90;55.00;;;;;;5125555;27;34656;-77
2021/12/02 01:45:48;;;;;;;2.65;0.60;;;6.80;54.90;;;;;;5127511;27;34411;-76
2021/12/02 01:48:23;;;;;;;0.80;0.60;;;6.80;55.00;;;;;;5107755;27;34125;-76
2021/12/02 01:51:00;;;;;;;0.50;0.50;;;6.90;55.10;;;;;;5091612;27;35622;-77
2021/12/02 01:53:33;;;;;;;0.88;0.40;;;6.80;54.40;;;;;;5106872;27;34257;-77
2021/12/02 01:56:10;;;;;;;0.50;0.50;;;6.80;54.70;;;;;;5089591;27;34173;-76
2021/12/02 01:58:52;;;;;;;0.40;0.40;;;6.70;54.60;;;;;;5107443;27;34316;-77
2021/12/02 02:01:26;;;;;;;0.75;0.47;;;6.70;54.60;;;;;;5107784;27;35771;-77
2021/12/02 02:03:55;;;;;;;0.30;0.30;;;6.70;55.00;;;;;;5108555;27;34304;-77
2021/12/02 02:06:28;;;;;;;1.45;0.40;;;6.70;55.00;;;;;;5126866;27;34247;-77
2021/12/02 02:08:57;;;;;;;0.50;0.20;;;6.70;55.00;;;;;;5127295;27;34207;-77
2021/12/02 02:11:26;;;;;;;1.35;0.40;;;6.70;55.00;;;;;;5092641;27;35945;-77
2021/12/02 02:13:53;;;;;;;0.70;0.55;;;6.70;55.00;;;;;;5074261;27;34245;-76
2021/12/02 02:16:19;;;;;;;0.30;0.30;;;6.60;54.80;;;;;;5109727;27;34312;-76
2021/12/02 02:18:45;;;;;;;0.50;0.47;;;6.60;54.90;;;;;;5108717;27;34280;-77
2021/12/02 02:21:15;;;;;;;0.30;0.30;;;6.60;55.00;;;;;;5127106;27;34342;-77
2021/12/02 02:26:28;;;;;;;0.50;0.45;;;6.60;55.10;;;;;;5126077;27;34226;-77
2021/12/02 02:28:56;;;;;;;1.02;0.60;;;6.60;55.20;;;;;;5108210;27;34380;-77
2021/12/02 02:31:24;;;;;;;0.45;0.45;;;6.60;55.30;;;;;;5110833;27;35771;-77
2021/12/02 02:33:52;;;;;;;0.50;0.50;;;6.60;55.30;;;;;;5093436;27;34373;-77
2021/12/02 02:36:20;;;;;;;0.52;0.52;;;6.60;55.30;;;;;;5110256;27;34071;-77
2021/12/02 02:38:56;;;;;;;0.60;0.57;;;6.60;55.10;;;;;;5128302;27;34035;-77
2021/12/02 02:41:25;;;;;;;0.57;0.57;;;6.60;55.10;;;;;;5110160;27;36164;-77
2021/12/02 02:43:55;;;;;;;1.85;0.50;;;6.60;55.20;;;;;;5094051;27;34145;-77
2021/12/02 02:46:25;;;;;;;1.95;0.60;;;6.60;55.20;;;;;;5129450;27;34247;-77
2021/12/02 02:48:51;;;;;;;1.30;0.60;;;6.60;55.30;;;;;;5110026;27;34306;-77
2021/12/02 02:51:17;;;;;;;0.60;0.60;;;6.50;55.40;;;;;;5109486;27;35593;-77
2021/12/02 02:53:47;;;;;;;0.60;0.60;;;6.50;55.40;;;;;;5093851;27;34432;-77
2021/12/02 02:56:17;;;;;;;2.33;0.50;;;6.50;55.40;;;;;;5093745;27;34325;-77
2021/12/02 02:58:59;;;;;;;1.48;0.60;;;6.50;55.40;;;;;;5093945;27;34286;-77
2021/12/02 03:01:36;;;;;;;0.57;0.55;;;6.50;55.40;;;;;;5110330;27;35702;-77
2021/12/02 03:04:15;;;;;;;0.82;0.50;;;6.50;55.40;;;;;;5110002;27;34348;-77
2021/12/02 03:06:51;;;;;;;0.90;0.65;;;6.60;55.50;;;;;;5109129;27;34364;-77
2021/12/02 03:12:14;;;;;;;0.93;0.70;;;6.50;55.40;;;;;;5128111;27;34233;-77
2021/12/02 03:16:36;;;;;;;1.05;0.77;;;6.60;55.40;;;;;;5108102;27;34208;-77
2021/12/02 03:17:28;;;;;;;1.15;0.60;;;6.50;55.40;;;;;;5098137;27;34353;-77
2021/12/02 03:19:54;;;;;;;1.95;0.90;;;6.50;55.40;;;;;;5108494;27;34308;-77
2021/12/02 03:22:20;;;;;;;0.98;0.98;;;6.50;55.30;;;;;;5091857;27;36093;-77
2021/12/02 03:24:46;;;;;;;1.17;0.85;;;6.50;55.20;;;;;;5108742;27;34206;-77
2021/12/02 03:27:13;;;;;;;0.95;0.82;;;6.50;55.20;;;;;;5127203;27;34222;-77
2021/12/02 03:29:40;;;;;;;0.90;0.90;;;6.50;55.20;;;;;;5091728;27;34142;-77
2021/12/02 03:32:08;;;;;;;2.20;1.00;;;6.50;55.30;;;;;;5091909;27;36025;-77
2021/12/02 03:34:34;;;;;;;2.60;0.63;;;6.50;55.20;;;;;;5093052;27;34239;-77
2021/12/02 03:37:00;;;;;;;2.00;0.85;;;6.50;55.40;;;;;;5109501;27;34092;-77
2021/12/02 03:39:27;;;;;;;0.63;0.63;;;6.50;55.40;;;;;;5128911;27;34178;-77
2021/12/02 03:41:55;;;;;;;1.88;0.93;;;6.50;55.30;;;;;;5108832;27;36418;-77
2021/12/02 03:44:22;;;;;;;2.13;0.68;;;6.50;55.30;;;;;;5127521;27;34174;-77
2021/12/02 03:46:49;;;;;;;0.60;0.60;;;6.50;56.00;;;;;;5076282;27;34227;-77
2021/12/02 03:49:15;;;;;;;0.88;0.65;;;6.50;55.30;;;;;;5109368;27;33992;-77
2021/12/02 03:51:41;;;;;;;1.95;0.90;;;6.50;55.30;;;;;;5108785;27;36157;-77
2021/12/02 03:54:07;;;;;;;1.50;0.80;;;6.50;55.40;;;;;;5109748;27;34198;-77
2021/12/02 03:56:34;;;;;;;3.28;0.80;;;6.50;55.50;;;;;;5128266;27;34295;-77
2021/12/02 03:59:00;;;;;;;0.80;0.80;;;6.50;55.50;;;;;;5108820;27;34177;-77
2021/12/02 04:01:26;;;;;;;2.15;0.88;;;6.60;55.40;;;;;;5091710;27;36556;-77
2021/12/02 04:03:53;;;;;;;0.80;0.77;;;6.50;55.40;;;;;;5091325;27;34157;-77
2021/12/02 04:06:20;;;;;;;2.03;0.90;;;6.50;55.50;;;;;;5091432;27;34350;-77
2021/12/02 04:08:53;;;;;;;0.68;0.68;;;6.50;55.50;;;;;;5107790;27;34538;-77
2021/12/02 04:14:25;;;;;;;1.25;0.80;;;6.50;55.40;;;;;;5111465;27;34193;-77
2021/12/02 04:16:53;;;;;;;4.50;0.80;;;6.50;55.40;;;;;;5124249;27;34483;-77
2021/12/02 04:19:21;;;;;;;0.80;0.80;;;6.60;55.50;;;;;;5087938;28;34535;-77
2021/12/02 04:21:47;;;;;;;0.60;0.60;;;6.50;55.50;;;;;;5106353;27;35607;-77
2021/12/02 04:24:13;;;;;;;0.93;0.90;;;6.50;55.50;;;;;;5108857;27;34321;-77
2021/12/02 04:26:40;;;;;;;1.20;1.02;;;6.50;55.50;;;;;;5107470;27;35119;-77
2021/12/02 04:29:07;;;;;;;1.02;0.90;;;6.50;55.50;;;;;;5090750;27;34190;-77
2021/12/02 04:31:33;;;;;;;0.70;0.70;;;6.50;55.50;;;;;;5107649;27;36085;-77
2021/12/02 04:33:59;;;;;;;1.40;0.80;;;6.50;55.60;;;;;;5107679;27;34232;-77
2021/12/02 04:36:25;;;;;;;2.00;0.93;;;6.50;55.60;;;;;;5107486;27;34321;-77
2021/12/02 04:38:51;;;;;;;1.63;0.70;;;6.50;55.60;;;;;;5089968;27;34484;-77
2021/12/02 04:41:18;;;;;;;0.80;0.80;;;6.50;55.70;;;;;;5107323;27;36129;-77
2021/12/02 04:43:44;;;;;;;1.00;1.00;;;6.50;55.70;;;;;;5090479;27;34196;-77
2021/12/02 04:46:10;;;;;;;3.22;1.08;;;6.50;55.70;;;;;;5107453;27;34448;-77
2021/12/02 04:48:36;;;;;;;1.10;1.00;;;6.50;55.60;;;;;;5107351;27;34594;-77
2021/12/02 04:51:03;;;;;;;1.58;1.20;;;6.50;55.60;;;;;;5107179;27;35740;-77
2021/12/02 04:53:30;;;;;;;0.77;0.77;;;6.40;55.40;;;;;;5107038;27;34390;-77
2021/12/02 04:55:56;;;;;;;0.90;0.90;;;6.50;55.50;;;;;;5089301;27;34507;-77
2021/12/02 04:58:22;;;;;;;0.90;0.90;;;6.50;55.60;;;;;;5107931;27;34264;-77
2021/12/02 05:00:50;;;;;;;1.17;0.90;;;6.50;55.70;;;;;;5090132;27;35656;-77
2021/12/02 05:03:16;;;;;;;1.10;1.00;;;6.50;55.60;;;;;;5091018;27;34152;-77
2021/12/02 05:05:42;;;;;;;1.60;1.30;;;6.50;55.70;;;;;;5125154;27;34390;-77
2021/12/02 05:08:08;;;;;;;1.30;1.10;;;6.50;55.70;;;;;;5126461;27;34375;-77
2021/12/02 05:10:34;;;;;;;2.72;1.10;;;6.40;55.00;;;;;;5106838;27;35668;-77
2021/12/02 05:13:00;;;;;;;2.25;1.52;;;6.40;55.00;;;;;;5090243;27;34305;-77
2021/12/02 05:15:27;;;;;;;2.35;1.40;;;6.40;55.00;;;;;;5107492;27;34241;-77
2021/12/02 05:17:53;;;;;;;2.00;0.95;;;6.40;54.90;;;;;;5125445;27;34248;-77
2021/12/02 05:20:20;;;;;;;1.15;1.08;;;6.40;55.10;;;;;;5107257;27;34208;-77
2021/12/02 05:22:46;;;;;;;1.65;1.48;;;6.40;55.60;;;;;;5106565;27;34110;-76
2021/12/02 05:25:12;;;;;;;1.42;1.05;;;6.40;54.90;;;;;;5090573;27;34172;-77
2021/12/02 05:27:38;;;;;;;2.15;1.10;;;6.40;54.80;;;;;;5107144;27;34401;-77
2021/12/02 05:30:05;;;;;;;2.65;1.40;;;6.40;54.70;;;;;;5106828;27;35626;-77
2021/12/02 05:32:31;;;;;;;2.35;1.27;;;6.40;55.00;;;;;;5107791;27;34382;-77
2021/12/02 05:34:58;;;;;;;2.33;1.52;;;6.40;54.70;;;;;;5106770;27;34267;-77
2021/12/02 05:37:25;;;;;;;4.25;1.25;;;6.30;54.60;;;;;;5125583;27;34157;-77
2021/12/02 05:39:51;;;;;;;5.10;1.20;;;6.40;55.10;;;;;;5124201;27;34262;-77
2021/12/02 05:42:17;;;;;;;1.55;1.33;;;6.30;53.60;;;;;;5125965;27;34089;-76
2021/12/02 05:44:45;;;;;;;2.50;1.10;;;6.30;54.30;;;;;;5106611;27;34141;-77
2021/12/02 05:47:12;;;;;;;1.95;1.15;;;6.30;54.40;;;;;;5107365;27;34297;-77
2021/12/02 05:49:38;;;;;;;4.22;1.27;;;6.30;54.30;;;;;;5124858;27;34247;-77
2021/12/02 05:52:04;;;;;;;3.35;1.20;;;6.20;53.90;;;;;;5125028;27;34338;-77
2021/12/02 05:54:30;;;;;;;2.95;0.90;;;6.30;54.10;;;;;;5091080;27;34117;-77
2021/12/02 05:56:56;;;;;;;2.08;0.90;;;6.20;54.40;;;;;;5089873;27;34103;-76
2021/12/02 05:59:22;;;;;;;2.08;1.30;;;6.30;54.20;;;;;;5089128;27;35685;-77
2021/12/02 06:01:49;;;;;;;2.40;1.10;;;6.20;53.70;;;;;;5089614;27;34443;-77
2021/12/02 06:04:15;;;;;;;2.50;1.20;;;6.20;53.40;;;;;;5073003;27;34765;-77
2021/12/02 06:06:42;;;;;;;1.70;1.08;;;6.20;53.60;;;;;;5072692;27;34571;-77
2021/12/02 06:09:08;;;;;;;3.15;1.60;;;6.20;53.80;;;;;;5126582;27;34461;-77
2021/12/02 06:11:34;;;;;;;4.22;1.40;;;6.20;53.70;;;;;;5107429;27;34218;-77
2021/12/02 06:14:00;;;;;;;4.03;1.30;;;6.10;53.70;;;;;;5108078;27;34266;-77
2021/12/02 06:16:26;;;;;;;5.05;1.27;;;6.20;54.00;;;;;;5107509;27;34233;-77
2021/12/02 06:18:52;;;;;;;1.55;1.13;;;6.20;53.90;;;;;;5108010;27;35995;-77
2021/12/02 06:21:18;;;;;;;2.97;1.10;;;6.20;54.00;;;;;;5090692;27;34185;-77
2021/12/02 06:23:44;;;;;;;1.83;1.35;;;6.20;53.80;;;;;;5124651;27;34221;-77
2021/12/02 06:26:10;;;;;;;3.60;1.23;;;6.10;53.80;;;;;;5103719;28;34296;-76
2021/12/02 06:28:37;;;;;;;4.93;1.08;;;6.10;53.60;;;;;;5103076;28;35728;-77
2021/12/02 06:31:06;;;;;;;2.85;1.45;;;6.10;53.70;;;;;;5116649;27;34277;-77
2021/12/02 06:33:33;;;;;;;2.38;1.10;;;6.10;53.90;;;;;;5106386;27;34221;-77
2021/12/02 06:35:59;;;;;;;5.25;1.52;;;6.10;53.70;;;;;;5106576;27;34502;-77
2021/12/02 06:38:26;;;;;;;1.98;1.30;;;6.10;53.50;;;;;;5107294;27;35864;-77
2021/12/02 06:40:52;;;;;;;2.05;1.30;;;6.00;53.40;;;;;;5105488;27;34518;-76
2021/12/02 06:43:18;;;;;;;1.42;1.15;;;6.00;53.30;;;;;;5107729;27;34164;-76
2021/12/02 06:45:45;;;;;;;3.85;0.90;;;6.00;53.00;;;;;;5086530;28;34348;-77
2021/12/02 06:48:11;;;;;;;1.40;0.90;;;5.90;52.90;;;;;;5086460;28;36262;-77
2021/12/02 06:50:37;;;;;;;3.10;1.00;;;5.90;52.70;;;;;;5089448;28;34471;-76
2021/12/02 06:53:05;;;;;;;0.80;0.80;;;5.80;52.90;;;;;;5088800;28;34105;-76
2021/12/02 06:55:32;;;;;;;2.72;0.90;;;5.70;53.00;;;;;;5089357;28;34264;-76
2021/12/02 06:57:58;;;;;;;1.23;0.80;;;5.70;53.10;;;;;;5107018;28;34365;-77
2021/12/02 07:00:24;;;;;;;2.03;1.00;;;5.60;53.00;;;;;;5071538;28;34227;-77
2021/12/02 07:02:52;;;;;;;0.85;0.80;;;5.60;52.70;;;;;;5088706;27;34098;-77
2021/12/02 07:05:19;;;;;;;2.88;1.00;;;5.40;52.70;;;;;;5085879;28;34561;-77
2021/12/02 07:07:46;;;;;;;1.02;0.77;;;5.40;53.10;;;;;;5068364;28;36093;-77
2021/12/02 07:10:18;;;;;;;1.55;1.02;;;5.40;53.20;;;;;;5086135;28;34163;-77
2021/12/02 07:12:47;;;;;;;2.50;0.77;;;5.40;53.10;;;;;;5086565;28;34290;-77
2021/12/02 07:15:17;;;;;;;1.50;0.90;;;5.30;53.30;;;;;;5073150;28;34505;-77
2021/12/02 07:17:45;;;;;;;0.60;0.60;;;5.30;53.40;;;;;;5091025;28;34370;-77
2021/12/02 07:20:13;;;;;;;3.47;0.98;;;5.30;53.50;;;;;;5090154;28;34432;-77
2021/12/02 07:22:39;;;;;;;2.10;0.90;;;5.20;53.60;;;;;;5073118;28;34091;-77
2021/12/02 07:25:06;;;;;;;2.72;0.52;;;5.20;53.60;;;;;;5090143;28;34201;-76
2021/12/02 07:27:32;;;;;;;0.60;0.50;;;5.20;53.40;;;;;;5088210;28;36911;-76
2021/12/02 07:29:58;;;;;;;1.70;0.60;;;5.20;53.50;;;;;;5089572;28;34306;-77
2021/12/02 07:32:28;;;;;;;3.50;0.65;;;5.20;53.00;;;;;;5089545;28;34349;-77
2021/12/02 07:34:55;;;;;;;0.98;0.63;;;5.20;53.30;;;;;;5088860;28;34276;-76
2021/12/02 07:37:23;;;;;;;2.10;0.70;;;5.30;53.50;;;;;;5087549;28;36034;-77
2021/12/02 07:39:49;;;;;;;0.82;0.50;;;5.30;53.40;;;;;;5089746;28;34419;-76
2021/12/02 07:42:17;;;;;;;1.27;0.50;;;5.30;53.30;;;;;;5089649;28;34453;-77
2021/12/02 07:44:44;;;;;;;1.63;0.50;;;5.30;52.90;;;;;;5088068;28;34267;-77
2021/12/02 07:47:10;;;;;;;1.35;0.63;;;5.30;53.40;;;;;;5088275;28;35998;-76
2021/12/02 07:49:38;;;;;;;0.85;0.50;;;5.30;53.40;;;;;;5089418;28;34195;-76
2021/12/02 07:52:07;;;;;;;1.63;0.70;;;5.30;53.30;;;;;;5089976;28;34245;-77
2021/12/02 07:54:33;;;;;;;0.30;0.30;;;5.30;53.20;;;;;;5073332;28;34395;-77
2021/12/02 07:57:00;;;;;;;1.25;0.50;;;5.30;53.10;;;;;;5053806;28;36477;-77
2021/12/02 07:59:27;;;;;;;0.95;0.60;;;5.30;53.10;;;;;;5069992;28;34092;-77
2021/12/02 08:02:00;;;;;;;1.08;0.50;;;5.30;53.30;;;;;;5087702;28;34066;-77
2021/12/02 08:04:27;;;;;;;0.63;0.50;;;5.30;53.40;;;;;;5071931;28;34172;-77
2021/12/02 08:06:53;;;;;;;0.77;0.50;;;5.30;53.50;;;;;;5091554;28;35949;-77
2021/12/02 08:09:20;;;;;;;0.22;0.22;;;5.30;53.40;;;;;;5072278;28;34142;-77
2021/12/02 08:11:46;;;;;;;0.25;0.25;;;5.30;53.10;;;;;;5090948;28;34315;-77
2021/12/02 08:14:15;;;;;;;0.25;0.25;;;5.30;52.90;;;;;;5092393;28;34551;-77
2021/12/02 08:16:43;;;;;;;0.30;0.30;;;5.30;52.80;;;;;;5088706;28;36016;-76
2021/12/02 08:19:09;;;;;;;1.75;0.38;;;5.20;52.90;;;;;;5090762;28;34380;-76
2021/12/02 08:21:35;;;;;;;0.63;0.40;;;5.20;53.10;;;;;;5090249;28;34448;-77
2021/12/02 08:24:01;;;;;;;1.65;0.47;;;5.30;53.40;;;;;;5091982;28;34817;-77
2021/12/02 08:26:27;;;;;;;0.50;0.38;;;5.20;53.00;;;;;;5108149;27;35371;-77
2021/12/02 08:28:53;;;;;;;0.50;0.40;;;5.20;53.10;;;;;;5090645;28;34268;-77
2021/12/02 08:31:19;;;;;;;2.05;0.40;;;5.20;52.90;;;;;;5090185;28;34162;-77
2021/12/02 08:33:48;;;;;;;0.40;0.40;;;5.30;53.20;;;;;;5108225;28;34260;-77
2021/12/02 08:36:14;;;;;;;0.30;0.30;;;5.30;53.10;;;;;;5072956;28;35678;-77
2021/12/02 08:38:40;;;;;;;0.20;0.20;;;5.30;53.20;;;;;;5089060;28;34150;-77
2021/12/02 08:41:07;;;;;;;1.17;0.43;;;5.30;53.20;;;;;;5072258;28;34273;-77
2021/12/02 08:43:33;;;;;;;1.23;0.38;;;5.30;53.20;;;;;;5089561;28;34236;-77
2021/12/02 08:45:59;;;;;;;0.50;0.40;;;5.40;53.10;;;;;;5071938;28;36623;-77
2021/12/02 08:48:25;;;;;;;0.40;0.40;;;5.30;53.00;;;;;;5073253;28;34215;-77
2021/12/02 08:50:51;;;;;;;0.90;0.80;;;5.40;52.90;;;;;;5106406;27;34285;-76
2021/12/02 08:53:17;;;;;;;0.80;0.40;;;5.40;53.00;;;;;;5088860;28;34292;-77
2021/12/02 08:55:43;;;;;;;0.30;0.30;;;5.50;52.80;;;;;;5107668;28;34210;-77
2021/12/02 08:58:10;;;;;;;0.70;0.40;;;5.40;52.70;;;;;;5088201;28;34312;-77
2021/12/02 09:00:54;;;;;;;0.38;0.38;;;5.50;52.90;;;;;;5071504;28;34373;-77
2021/12/02 09:03:20;;;;;;;0.40;0.40;;;5.50;52.80;;;;;;5107897;28;34383;-77
2021/12/02 09:05:46;;;;;;;0.45;0.30;;;5.40;52.80;;;;;;5084274;28;35886;-77
2021/12/02 09:08:15;;;;;;;0.50;0.50;;;5.50;53.10;;;;;;5085359;28;34375;-77
2021/12/02 09:10:42;;;;;;;0.40;0.40;;;5.50;52.90;;;;;;5084826;28;34375;-77
2021/12/02 09:13:08;;;;;;;0.60;0.60;;;5.50;52.70;;;;;;5069878;28;34270;-77
2021/12/02 09:15:36;;;;;;;1.13;0.43;;;5.50;53.40;;;;;;5103602;28;35498;-77
2021/12/02 09:18:02;;;;;;;0.30;0.30;;;5.60;52.40;;;;;;5085685;28;34139;-77
2021/12/02 09:20:28;;;;;;;0.40;0.40;;;5.60;52.40;;;;;;5102196;28;34183;-77
2021/12/02 09:22:54;;;;;;;0.40;0.40;;;5.60;52.60;;;;;;5083522;28;34099;-77
2021/12/02 09:25:20;;;;;;;0.30;0.30;;;5.70;52.70;;;;;;5083644;28;35877;-77
2021/12/02 09:27:47;;;;;;;0.40;0.40;;;5.70;52.50;;;;;;5101414;27;34024;-77
2021/12/02 09:30:14;;;;;;;0.95;0.50;;;5.70;52.20;;;;;;5083781;28;34491;-77
2021/12/02 09:32:40;;;;;;;1.35;0.60;;;5.80;51.90;;;;;;5067861;28;34397;-78
2021/12/02 09:35:08;;;;;;;0.35;0.30;;;5.70;51.50;;;;;;5083950;28;35556;-77
2021/12/02 09:37:34;;;;;;;0.30;0.30;;;5.80;52.10;;;;;;5086314;28;34429;-77
2021/12/02 09:40:00;;;;;;;0.93;0.52;;;5.80;51.70;;;;;;5084509;28;34190;-77
2021/12/02 09:42:26;;;;;;;0.40;0.40;;;5.80;52.00;;;;;;5101390;28;34115;-77
2021/12/02 09:44:59;;;;;;;0.50;0.50;;;5.80;51.90;;;;;;5085480;28;35273;-77
2021/12/02 09:47:29;;;;;;;0.35;0.35;;;5.90;52.10;;;;;;5083780;28;34219;-77
2021/12/02 09:49:58;;;;;;;0.65;0.65;;;5.90;51.50;;;;;;5084653;28;34582;-77
2021/12/02 09:52:31;;;;;;;0.22;0.22;;;5.90;51.50;;;;;;5083353;28;34539;-77
2021/12/02 09:55:04;;;;;;;0.40;0.40;;;6.00;51.10;;;;;;5083407;28;35981;-77
2021/12/02 09:57:35;;;;;;;0.40;0.40;;;6.00;51.60;;;;;;5082880;28;34116;-77
2021/12/02 10:00:02;;;;;;;2.30;0.40;;;6.00;51.40;;;;;;5067536;28;34197;-77
2021/12/02 10:02:28;;;;;;;0.47;0.40;;;6.00;51.40;;;;;;5085164;28;34089;-77
2021/12/02 10:05:01;;;;;;;0.55;0.55;;;6.10;51.30;;;;;;5100653;28;35958;-77
2021/12/02 10:07:36;;;;;;;0.40;0.40;;;6.20;50.90;;;;;;5088698;28;34181;-77
2021/12/02 10:10:14;;;;;;;0.38;0.38;;;6.20;51.00;;;;;;5087269;28;34351;-77
2021/12/02 10:13:03;;;;;;;0.40;0.40;;;6.20;51.10;;;;;;5089790;28;34103;-77
2021/12/02 10:15:30;;;;;;;0.85;0.40;;;6.30;51.40;;;;;;5073880;28;35600;-77
2021/12/02 10:18:08;;;;;;;0.57;0.38;;;6.30;51.10;;;;;;5105864;28;34218;-77
2021/12/02 10:20:37;;;;;;;0.35;0.35;;;6.40;51.00;;;;;;5105870;28;34265;-77
2021/12/02 10:23:14;;;;;;;0.47;0.45;;;6.40;51.00;;;;;;5106612;28;34244;-77
2021/12/02 10:25:47;;;;;;;0.52;0.40;;;6.30;50.30;;;;;;5103860;27;34298;-77
2021/12/02 10:28:41;;;;;;;0.40;0.40;;;6.30;50.20;;;;;;5089046;28;34225;-77
2021/12/02 10:31:07;;;;;;;0.40;0.40;;;6.40;50.20;;;;;;5088966;28;34192;-77
2021/12/02 10:33:39;;;;;;;1.48;0.50;;;6.40;50.90;;;;;;5071144;28;34257;-77
2021/12/02 10:36:09;;;;;;;0.60;0.60;;;6.40;50.40;;;;;;5070107;28;36611;-77
2021/12/02 10:38:40;;;;;;;0.95;0.50;;;6.40;50.60;;;;;;5071338;28;34108;-77
2021/12/02 10:41:10;;;;;;;0.73;0.55;;;6.50;50.80;;;;;;5087755;28;34107;-77
2021/12/02 10:43:56;;;;;;;0.50;0.50;;;6.50;50.70;;;;;;5086497;28;34269;-77
2021/12/02 10:46:22;;;;;;;0.45;0.45;;;6.50;50.30;;;;;;5073074;28;35837;-77
2021/12/02 10:48:51;;;;;;;0.93;0.40;;;6.50;50.00;;;;;;5088224;28;34082;-77
2021/12/02 10:51:35;;;;;;;0.50;0.50;;;6.60;50.70;;;;;;5106799;27;34220;-76
2021/12/02 10:54:04;;;;;;;0.50;0.50;;;6.60;48.60;;;;;;5089797;28;34541;-77
2021/12/02 10:56:34;;;;;;;1.05;0.50;;;6.50;50.20;;;;;;5089696;28;35679;-77
2021/12/02 10:59:35;;;;;;;1.02;0.70;;;6.50;50.40;;;;;;5089851;28;34386;-77
2021/12/02 11:02:06;;;;;;;0.50;0.50;;;6.50;49.00;;;;;;5077987;28;34256;-77
2021/12/02 11:04:38;;;;;;;0.45;0.45;;;6.50;50.50;;;;;;5092468;28;34308;-76
2021/12/02 11:07:10;;;;;;;1.15;0.38;;;6.50;49.70;;;;;;5073822;28;36063;-77
2021/12/02 11:09:37;;;;;;;1.73;0.70;;;6.50;50.30;;;;;;5091566;28;34372;-77
2021/12/02 11:12:15;;;;;;;2.47;0.50;;;6.60;50.30;;;;;;5111665;28;34164;-77
2021/12/02 11:14:52;;;;;;;0.57;0.40;;;6.60;49.10;;;;;;5091190;28;34293;-76
2021/12/02 11:17:18;;;;;;;0.40;0.40;;;6.50;50.00;;;;;;5090540;28;36921;-77
2021/12/02 11:19:47;;;;;;;0.68;0.57;;;6.50;50.20;;;;;;5089223;28;34240;-77
2021/12/02 11:22:18;;;;;;;1.05;0.85;;;6.40;49.90;;;;;;5108072;28;34120;-77
2021/12/02 11:24:46;;;;;;;0.50;0.50;;;6.40;49.80;;;;;;5089289;28;34175;-76
2021/12/02 11:30:37;;;;;;;2.88;0.68;;;6.20;49.20;;;;;;5109582;28;34409;-77
2021/12/02 11:33:05;;;;;;;0.85;0.50;;;6.00;50.00;;;;;;5091073;28;34390;-77
2021/12/02 11:35:37;;;;;;;0.50;0.50;;;6.00;50.50;;;;;;5089936;28;34420;-77
2021/12/02 11:38:09;;;;;;;0.35;0.35;;;6.00;50.70;;;;;;5109208;28;34435;-76
2021/12/02 11:40:40;;;;;;;0.30;0.30;;;6.00;50.50;;;;;;5073524;28;34201;-77
2021/12/02 11:43:09;;;;;;;0.30;0.30;;;6.00;50.20;;;;;;5088562;28;34265;-77
2021/12/02 11:45:42;;;;;;;0.82;0.50;;;5.90;51.10;;;;;;5089646;28;34222;-77
2021/12/02 11:48:09;;;;;;;0.43;0.40;;;6.00;50.40;;;;;;5076039;28;35848;-77
2021/12/02 11:50:35;;;;;;;1.60;0.40;;;6.10;50.60;;;;;;5110774;28;34347;-77
2021/12/02 11:53:01;;;;;;;0.90;0.30;;;6.20;50.00;;;;;;5109360;28;34391;-77
2021/12/02 11:55:32;;;;;;;0.30;0.30;;;6.30;50.40;;;;;;5091066;28;34127;-77
2021/12/02 11:57:59;;;;;;;0.43;0.40;;;6.40;49.70;;;;;;5058923;28;36658;-77
2021/12/02 12:00:27;;;;;;;2.90;0.50;;;6.40;49.90;;;;;;5091947;28;34374;-77
2021/12/02 12:03:00;;;;;;;0.30;0.30;;;6.40;49.80;;;;;;5056626;28;34125;-77
2021/12/02 12:05:31;;;;;;;0.63;0.40;;;6.40;49.90;;;;;;5088174;28;34459;-77
2021/12/02 12:07:57;;;;;;;0.30;0.28;;;6.40;49.60;;;;;;5083056;28;36731;-77
2021/12/02 12:10:29;;;;;;;2.58;0.47;;;6.40;49.60;;;;;;5103111;28;34258;-77
2021/12/02 12:13:20;;;;;;;0.45;0.43;;;6.40;49.20;;;;;;5079105;28;34492;-76
2021/12/02 12:15:50;;;;;;;1.13;0.50;;;6.40;47.10;;;;;;5089348;28;34171;-77
2021/12/02 12:18:36;;;;;;;0.85;0.70;;;6.40;49.10;;;;;;5070738;28;35717;-76
2021/12/02 12:21:11;;;;;;;2.47;0.20;;;6.30;47.00;;;;;;5093626;28;34317;-77
2021/12/02 12:23:42;;;;;;;1.83;0.47;;;6.30;48.90;;;;;;5081224;28;34338;-76
2021/12/02 12:26:32;;;;;;;0.57;0.40;;;6.40;49.60;;;;;;5103759;28;34179;-76
2021/12/02 12:29:19;;;;;;;2.03;0.65;;;6.40;49.30;;;;;;5089385;28;35822;-76
2021/12/02 12:32:17;;;;;;;0.57;0.40;;;6.40;47.40;;;;;;5106362;28;34294;-77
2021/12/02 12:34:53;;;;;;;0.57;0.43;;;6.40;47.80;;;;;;5105837;27;34165;-76
2021/12/02 12:37:48;;;;;;;0.68;0.40;;;6.40;49.30;;;;;;5086016;28;34240;-76
2021/12/02 12:40:19;;;;;;;0.57;0.40;;;6.40;48.40;;;;;;5104311;28;35565;-76
2021/12/02 12:42:51;;;;;;;6.10;0.80;;;6.50;49.20;;;;;;5107339;28;34197;-76
2021/12/02 12:45:36;;;;;;;1.02;0.50;;;6.40;49.20;;;;;;5107447;28;34493;-76
2021/12/02 12:48:04;;;;;;;1.38;0.40;;;6.40;47.40;;;;;;5085079;28;34411;-76
2021/12/02 12:50:43;;;;;;;1.42;0.65;;;6.40;48.70;;;;;;5103866;28;35772;-77
2021/12/02 12:53:33;;;;;;;3.85;0.60;;;6.20;49.00;;;;;;5107789;27;34327;-77
2021/12/02 12:56:04;;;;;;;0.45;0.45;;;6.20;49.20;;;;;;5109266;28;34230;-76
2021/12/02 12:58:32;;;;;;;2.03;0.63;;;6.20;49.90;;;;;;5106734;28;34349;-76
2021/12/02 13:01:01;;;;;;;0.60;0.60;;;6.10;49.50;;;;;;5099299;28;34396;-76
2021/12/02 13:03:40;;;;;;;0.73;0.63;;;6.00;49.10;;;;;;5102716;28;34194;-76
2021/12/02 13:06:19;;;;;;;0.90;0.65;;;6.00;49.20;;;;;;5097577;28;34405;-76
2021/12/02 13:08:49;;;;;;;1.67;0.57;;;6.00;49.70;;;;;;5073593;28;34265;-77
2021/12/02 13:11:20;;;;;;;2.13;0.75;;;5.90;49.80;;;;;;5095136;27;36301;-76
2021/12/02 13:13:48;;;;;;;1.48;0.73;;;5.90;50.00;;;;;;5123012;27;34310;-77
2021/12/02 13:16:35;;;;;;;1.08;0.95;;;5.90;50.10;;;;;;5128301;27;34119;-76
2021/12/02 13:19:17;;;;;;;2.25;0.75;;;5.90;48.60;;;;;;5114534;27;34592;-77
2021/12/02 13:21:45;;;;;;;1.83;0.77;;;6.00;49.80;;;;;;5109245;27;36077;-76
2021/12/02 13:24:16;;;;;;;2.88;0.90;;;5.90;49.50;;;;;;5128346;27;33955;-77
2021/12/02 13:26:46;;;;;;;3.88;0.82;;;6.00;50.00;;;;;;5109001;27;34345;-76